PWSweather.com
Personal Weather Stations
Station Observations
CALONGE
CalongeES 17251

CalongeES 17251

Lat: 41.85972222, Lon: 3.077777778

Elevation: 16

Station Type: Oregon WMR928N

www.calonge-meteoweb.com

High Low Average
Temperature 65.7°F18.7°C 43.7°F6.5°C 55.0°F12.8°C
Dew Point 49.9°F9.9°C 39.5°F4.2°C 45.0°F7.2°C
Winds 12.0 mph 19.3 kmh Calm Calm 3.0 mph E4.8 kmh E
Wind Gusts 14.4 mph23.2 kmh -- 5.0 mph8.0 kmh
Humidity 92% 46% 71%
Pressure 30.36 in1028.1 mb 30.27 in1025.1 mb -
Precipitation 0.00 in0.0 mm - -
Hour Temp Dew Point Humidity Winds Wind Gusts Pressure Precip Precip Rate Daily Precip Total
12:00 AM 46.9°F8.3°C 40.8°F4.9°C 79% Calm Calm -- 30.36 in1028.1 mb 0.00 in0.0 mm 0.00 in0.0 mm 0.00 in0.0 mm
12:15 AM 46.8°F8.2°C 40.6°F4.8°C 79% Calm Calm -- 30.36 in1028.1 mb 0.00 in0.0 mm 0.00 in0.0 mm 0.00 in0.0 mm
12:30 AM 46.4°F8.0°C 40.2°F4.6°C 79% Calm Calm -- 30.33 in1027.1 mb 0.00 in0.0 mm 0.00 in0.0 mm 0.00 in0.0 mm
12:45 AM 45.9°F7.7°C 40.0°F4.4°C 80% Calm Calm -- 30.33 in1027.1 mb 0.00 in0.0 mm 0.00 in0.0 mm 0.00 in0.0 mm
01:00 AM 45.9°F7.7°C 40.7°F4.8°C 82% Calm Calm -- 30.33 in1027.1 mb 0.00 in0.0 mm 0.00 in0.0 mm 0.00 in0.0 mm
01:15 AM 45.9°F7.7°C 41.3°F5.2°C 84% Calm Calm 6.4 mph10.3 kmh 30.33 in1027.1 mb 0.00 in0.0 mm 0.00 in0.0 mm 0.00 in0.0 mm
01:30 AM 46.8°F8.2°C 42.8°F6.0°C 86% 3.5 mph WNW5.6 kmh WNW 8.2 mph13.2 kmh 30.33 in1027.1 mb 0.00 in0.0 mm 0.00 in0.0 mm 0.00 in0.0 mm
01:45 AM 47.1°F8.4°C 42.5°F5.8°C 84% Calm Calm -- 30.33 in1027.1 mb 0.00 in0.0 mm 0.00 in0.0 mm 0.00 in0.0 mm
02:00 AM 47.1°F8.4°C 42.2°F5.7°C 83% Calm Calm 6.4 mph10.3 kmh 30.33 in1027.1 mb 0.00 in0.0 mm 0.00 in0.0 mm 0.00 in0.0 mm
02:15 AM 46.9°F8.3°C 41.7°F5.4°C 82% Calm Calm -- 30.33 in1027.1 mb 0.00 in0.0 mm 0.00 in0.0 mm 0.00 in0.0 mm
02:30 AM 46.9°F8.3°C 42.4°F5.8°C 84% Calm Calm -- 30.33 in1027.1 mb 0.00 in0.0 mm 0.00 in0.0 mm 0.00 in0.0 mm
02:45 AM 46.9°F8.3°C 42.4°F5.8°C 84% Calm Calm -- 30.33 in1027.1 mb 0.00 in0.0 mm 0.00 in0.0 mm 0.00 in0.0 mm
03:00 AM 46.6°F8.1°C 42.0°F5.6°C 84% Calm Calm -- 30.30 in1026.1 mb 0.00 in0.0 mm 0.00 in0.0 mm 0.00 in0.0 mm
03:15 AM 45.9°F7.7°C 41.3°F5.2°C 84% Calm Calm -- 30.30 in1026.1 mb 0.00 in0.0 mm 0.00 in0.0 mm 0.00 in0.0 mm
03:30 AM 45.3°F7.4°C 41.4°F5.2°C 86% Calm Calm -- 30.30 in1026.1 mb 0.00 in0.0 mm 0.00 in0.0 mm 0.00 in0.0 mm
03:45 AM 45.1°F7.3°C 41.5°F5.3°C 87% Calm Calm -- 30.30 in1026.1 mb 0.00 in0.0 mm 0.00 in0.0 mm 0.00 in0.0 mm
04:00 AM 45.3°F7.4°C 42.6°F5.9°C 90% Calm Calm -- 30.30 in1026.1 mb 0.00 in0.0 mm 0.00 in0.0 mm 0.00 in0.0 mm
04:15 AM 45.1°F7.3°C 42.4°F5.8°C 90% Calm Calm -- 30.30 in1026.1 mb 0.00 in0.0 mm 0.00 in0.0 mm 0.00 in0.0 mm
04:30 AM 44.8°F7.1°C 42.0°F5.6°C 90% Calm Calm -- 30.30 in1026.1 mb 0.00 in0.0 mm 0.00 in0.0 mm 0.00 in0.0 mm
04:45 AM 45.5°F7.5°C 43.3°F6.3°C 92% Calm Calm -- 30.27 in1025.1 mb 0.00 in0.0 mm 0.00 in0.0 mm 0.00 in0.0 mm
05:00 AM 45.9°F7.7°C 43.1°F6.2°C 90% 4.7 mph NW7.6 kmh NW 7.0 mph11.3 kmh 30.27 in1025.1 mb 0.00 in0.0 mm 0.00 in0.0 mm 0.00 in0.0 mm
05:15 AM 45.7°F7.6°C 42.0°F5.6°C 87% Calm Calm 6.4 mph10.3 kmh 30.27 in1025.1 mb 0.00 in0.0 mm 0.00 in0.0 mm 0.00 in0.0 mm
05:30 AM 45.3°F7.4°C 41.7°F5.4°C 87% Calm Calm -- 30.30 in1026.1 mb 0.00 in0.0 mm 0.00 in0.0 mm 0.00 in0.0 mm
05:45 AM 45.7°F7.6°C 41.7°F5.4°C 86% Calm Calm 6.4 mph10.3 kmh 30.30 in1026.1 mb 0.00 in0.0 mm 0.00 in0.0 mm 0.00 in0.0 mm
06:00 AM 44.8°F7.1°C 40.5°F4.7°C 85% Calm Calm -- 30.30 in1026.1 mb 0.00 in0.0 mm 0.00 in0.0 mm 0.00 in0.0 mm
06:15 AM 45.1°F7.3°C 41.5°F5.3°C 87% 5.9 mph WNW9.5 kmh WNW 8.2 mph13.2 kmh 30.30 in1026.1 mb 0.00 in0.0 mm 0.00 in0.0 mm 0.00 in0.0 mm
06:30 AM 45.5°F7.5°C 41.6°F5.3°C 86% Calm Calm 5.3 mph8.5 kmh 30.30 in1026.1 mb 0.00 in0.0 mm 0.00 in0.0 mm 0.00 in0.0 mm
06:45 AM 44.1°F6.7°C 39.5°F4.2°C 84% Calm Calm -- 30.30 in1026.1 mb 0.00 in0.0 mm 0.00 in0.0 mm 0.00 in0.0 mm
07:00 AM 44.2°F6.8°C 40.6°F4.8°C 87% Calm Calm -- 30.30 in1026.1 mb 0.00 in0.0 mm 0.00 in0.0 mm 0.00 in0.0 mm
07:15 AM 44.1°F6.7°C 40.4°F4.7°C 87% Calm Calm -- 30.30 in1026.1 mb 0.00 in0.0 mm 0.00 in0.0 mm 0.00 in0.0 mm
07:30 AM 43.9°F6.6°C 40.6°F4.8°C 88% Calm Calm -- 30.27 in1025.1 mb 0.00 in0.0 mm 0.00 in0.0 mm 0.00 in0.0 mm
07:45 AM 43.7°F6.5°C 40.4°F4.7°C 88% Calm Calm -- 30.30 in1026.1 mb 0.00 in0.0 mm 0.00 in0.0 mm 0.00 in0.0 mm
08:00 AM 45.0°F7.2°C 42.5°F5.8°C 91% 4.1 mph WNW6.6 kmh WNW 6.4 mph10.3 kmh 30.30 in1026.1 mb 0.00 in0.0 mm 0.00 in0.0 mm 0.00 in0.0 mm
08:15 AM 46.2°F7.9°C 43.4°F6.3°C 90% Calm Calm -- 30.30 in1026.1 mb 0.00 in0.0 mm 0.00 in0.0 mm 0.00 in0.0 mm
08:30 AM 47.7°F8.7°C 44.6°F7.0°C 89% Calm Calm -- 30.30 in1026.1 mb 0.00 in0.0 mm 0.00 in0.0 mm 0.00 in0.0 mm
08:45 AM 48.9°F9.4°C 44.9°F7.2°C 86% Calm Calm -- 30.30 in1026.1 mb 0.00 in0.0 mm 0.00 in0.0 mm 0.00 in0.0 mm
09:00 AM 51.4°F10.8°C 45.8°F7.7°C 81% Calm Calm -- 30.30 in1026.1 mb 0.00 in0.0 mm 0.00 in0.0 mm 0.00 in0.0 mm
09:15 AM 53.6°F12.0°C 46.9°F8.3°C 78% Calm Calm -- 30.30 in1026.1 mb 0.00 in0.0 mm 0.00 in0.0 mm 0.00 in0.0 mm
09:30 AM 56.3°F13.5°C 48.1°F8.9°C 74% Calm Calm -- 30.30 in1026.1 mb 0.00 in0.0 mm 0.00 in0.0 mm 0.00 in0.0 mm
09:45 AM 58.5°F14.7°C 48.3°F9.1°C 69% Calm Calm -- 30.30 in1026.1 mb 0.00 in0.0 mm 0.00 in0.0 mm 0.00 in0.0 mm
10:00 AM 60.1°F15.6°C 47.0°F8.3°C 62% 4.7 mph SE7.6 kmh SE 7.6 mph12.2 kmh 30.30 in1026.1 mb 0.00 in0.0 mm 0.00 in0.0 mm 0.00 in0.0 mm
10:15 AM 61.3°F16.3°C 45.5°F7.5°C 56% 4.7 mph SE7.6 kmh SE 7.0 mph11.3 kmh 30.30 in1026.1 mb 0.00 in0.0 mm 0.00 in0.0 mm 0.00 in0.0 mm
10:30 AM 62.4°F16.9°C 44.6°F7.0°C 52% 7.0 mph SE11.3 kmh SE 7.6 mph12.2 kmh 30.33 in1027.1 mb 0.00 in0.0 mm 0.00 in0.0 mm 0.00 in0.0 mm
10:45 AM 63.0°F17.2°C 44.5°F6.9°C 51% 7.0 mph SE11.3 kmh SE 10.8 mph17.4 kmh 30.33 in1027.1 mb 0.00 in0.0 mm 0.00 in0.0 mm 0.00 in0.0 mm
11:00 AM 63.0°F17.2°C 45.1°F7.3°C 52% 8.8 mph SE14.2 kmh SE 10.5 mph16.9 kmh 30.33 in1027.1 mb 0.00 in0.0 mm 0.00 in0.0 mm 0.00 in0.0 mm
11:15 AM 62.6°F17.0°C 45.7°F7.6°C 54% 7.0 mph SE11.3 kmh SE 11.4 mph18.3 kmh 30.33 in1027.1 mb 0.00 in0.0 mm 0.00 in0.0 mm 0.00 in0.0 mm
11:30 AM 62.2°F16.8°C 45.9°F7.7°C 55% 8.8 mph SE14.2 kmh SE 10.8 mph17.4 kmh 30.33 in1027.1 mb 0.00 in0.0 mm 0.00 in0.0 mm 0.00 in0.0 mm
11:45 AM 62.8°F17.1°C 48.2°F9.0°C 59% 5.9 mph SE9.5 kmh SE 10.8 mph17.4 kmh 30.30 in1026.1 mb 0.00 in0.0 mm 0.00 in0.0 mm 0.00 in0.0 mm
12:00 PM 63.3°F17.4°C 45.9°F7.7°C 53% 11.4 mph SE18.3 kmh SE 14.4 mph23.2 kmh 30.30 in1026.1 mb 0.00 in0.0 mm 0.00 in0.0 mm 0.00 in0.0 mm
12:15 PM 63.7°F17.6°C 44.7°F7.1°C 50% 12.0 mph SE19.3 kmh SE 13.2 mph21.2 kmh 30.30 in1026.1 mb 0.00 in0.0 mm 0.00 in0.0 mm 0.00 in0.0 mm
12:30 PM 63.5°F17.5°C 44.5°F6.9°C 50% 8.2 mph SE13.2 kmh SE 13.8 mph22.2 kmh 30.30 in1026.1 mb 0.00 in0.0 mm 0.00 in0.0 mm 0.00 in0.0 mm
12:45 PM 63.9°F17.7°C 45.4°F7.4°C 51% 9.4 mph SE15.1 kmh SE 11.4 mph18.3 kmh 30.30 in1026.1 mb 0.00 in0.0 mm 0.00 in0.0 mm 0.00 in0.0 mm
01:00 PM 64.4°F18.0°C 43.7°F6.5°C 47% 10.5 mph SE16.9 kmh SE 13.8 mph22.2 kmh 30.30 in1026.1 mb 0.00 in0.0 mm 0.00 in0.0 mm 0.00 in0.0 mm
01:15 PM 64.2°F17.9°C 43.0°F6.1°C 46% 8.8 mph SE14.2 kmh SE 14.4 mph23.2 kmh 30.30 in1026.1 mb 0.00 in0.0 mm 0.00 in0.0 mm 0.00 in0.0 mm
01:30 PM 64.2°F17.9°C 43.6°F6.4°C 47% 7.0 mph SE11.3 kmh SE 10.8 mph17.4 kmh 30.30 in1026.1 mb 0.00 in0.0 mm 0.00 in0.0 mm 0.00 in0.0 mm
01:45 PM 65.5°F18.6°C 44.7°F7.1°C 47% 6.4 mph ESE10.3 kmh ESE 11.4 mph18.3 kmh 30.30 in1026.1 mb 0.00 in0.0 mm 0.00 in0.0 mm 0.00 in0.0 mm
02:00 PM 65.3°F18.5°C 44.5°F6.9°C 47% 8.2 mph SE13.2 kmh SE 10.8 mph17.4 kmh 30.30 in1026.1 mb 0.00 in0.0 mm 0.00 in0.0 mm 0.00 in0.0 mm
02:15 PM 65.3°F18.5°C 46.2°F7.9°C 50% 6.4 mph SE10.3 kmh SE 11.4 mph18.3 kmh 30.27 in1025.1 mb 0.00 in0.0 mm 0.00 in0.0 mm 0.00 in0.0 mm
02:30 PM 65.7°F18.7°C 46.0°F7.8°C 49% 8.2 mph SE13.2 kmh SE 10.8 mph17.4 kmh 30.27 in1025.1 mb 0.00 in0.0 mm 0.00 in0.0 mm 0.00 in0.0 mm
02:45 PM 65.1°F18.4°C 46.0°F7.8°C 50% 4.7 mph SE7.6 kmh SE 13.2 mph21.2 kmh 30.27 in1025.1 mb 0.00 in0.0 mm 0.00 in0.0 mm 0.00 in0.0 mm
03:00 PM 65.5°F18.6°C 45.8°F7.7°C 49% 7.0 mph SSE11.3 kmh SSE 10.8 mph17.4 kmh 30.27 in1025.1 mb 0.00 in0.0 mm 0.00 in0.0 mm 0.00 in0.0 mm
03:15 PM 65.3°F18.5°C 45.6°F7.6°C 49% 8.2 mph SSE13.2 kmh SSE 13.2 mph21.2 kmh 30.27 in1025.1 mb 0.00 in0.0 mm 0.00 in0.0 mm 0.00 in0.0 mm
03:30 PM 64.9°F18.3°C 45.3°F7.4°C 49% 10.5 mph SSE16.9 kmh SSE 13.2 mph21.2 kmh 30.27 in1025.1 mb 0.00 in0.0 mm 0.00 in0.0 mm 0.00 in0.0 mm
03:45 PM 64.6°F18.1°C 46.0°F7.8°C 51% 8.8 mph SSE14.2 kmh SSE 13.8 mph22.2 kmh 30.27 in1025.1 mb 0.00 in0.0 mm 0.00 in0.0 mm 0.00 in0.0 mm
04:00 PM 64.4°F18.0°C 45.9°F7.7°C 51% 8.2 mph SSE13.2 kmh SSE 11.4 mph18.3 kmh 30.27 in1025.1 mb 0.00 in0.0 mm 0.00 in0.0 mm 0.00 in0.0 mm
04:15 PM 64.2°F17.9°C 46.7°F8.2°C 53% 6.4 mph SE10.3 kmh SE 14.4 mph23.2 kmh 30.27 in1025.1 mb 0.00 in0.0 mm 0.00 in0.0 mm 0.00 in0.0 mm
04:30 PM 63.9°F17.7°C 47.4°F8.6°C 55% 5.9 mph S9.5 kmh S 12.6 mph20.3 kmh 30.27 in1025.1 mb 0.00 in0.0 mm 0.00 in0.0 mm 0.00 in0.0 mm
04:45 PM 63.5°F17.5°C 47.0°F8.3°C 55% 7.6 mph S12.2 kmh S 12.6 mph20.3 kmh 30.27 in1025.1 mb 0.00 in0.0 mm 0.00 in0.0 mm 0.00 in0.0 mm
05:00 PM 62.8°F17.1°C 46.8°F8.2°C 56% 7.6 mph S12.2 kmh S 14.4 mph23.2 kmh 30.27 in1025.1 mb 0.00 in0.0 mm 0.00 in0.0 mm 0.00 in0.0 mm
05:15 PM 62.2°F16.8°C 47.7°F8.7°C 59% 7.0 mph SSE11.3 kmh SSE 11.4 mph18.3 kmh 30.27 in1025.1 mb 0.00 in0.0 mm 0.00 in0.0 mm 0.00 in0.0 mm
05:30 PM 61.9°F16.6°C 48.7°F9.3°C 62% 2.9 mph S4.7 kmh S 10.0 mph16.1 kmh 30.27 in1025.1 mb 0.00 in0.0 mm 0.00 in0.0 mm 0.00 in0.0 mm
05:45 PM 61.7°F16.5°C 48.5°F9.2°C 62% 5.9 mph S9.5 kmh S 10.0 mph16.1 kmh 30.27 in1025.1 mb 0.00 in0.0 mm 0.00 in0.0 mm 0.00 in0.0 mm
06:00 PM 61.3°F16.3°C 48.2°F9.0°C 62% 3.5 mph S5.6 kmh S 8.2 mph13.2 kmh 30.27 in1025.1 mb 0.00 in0.0 mm 0.00 in0.0 mm 0.00 in0.0 mm
06:15 PM 61.0°F16.1°C 48.3°F9.1°C 63% 3.5 mph SSW5.6 kmh SSW 7.6 mph12.2 kmh 30.27 in1025.1 mb 0.00 in0.0 mm 0.00 in0.0 mm 0.00 in0.0 mm
06:30 PM 60.4°F15.8°C 48.6°F9.2°C 65% Calm Calm 8.2 mph13.2 kmh 30.27 in1025.1 mb 0.00 in0.0 mm 0.00 in0.0 mm 0.00 in0.0 mm
06:45 PM 60.1°F15.6°C 48.7°F9.3°C 66% Calm Calm -- 30.27 in1025.1 mb 0.00 in0.0 mm 0.00 in0.0 mm 0.00 in0.0 mm
07:00 PM 59.5°F15.3°C 48.6°F9.2°C 67% Calm Calm -- 30.30 in1026.1 mb 0.00 in0.0 mm 0.00 in0.0 mm 0.00 in0.0 mm
07:15 PM 59.0°F15.0°C 48.8°F9.3°C 69% Calm Calm -- 30.30 in1026.1 mb 0.00 in0.0 mm 0.00 in0.0 mm 0.00 in0.0 mm
07:30 PM 58.5°F14.7°C 48.7°F9.3°C 70% Calm Calm -- 30.30 in1026.1 mb 0.00 in0.0 mm 0.00 in0.0 mm 0.00 in0.0 mm
07:45 PM 58.1°F14.5°C 48.7°F9.3°C 71% Calm Calm -- 30.30 in1026.1 mb 0.00 in0.0 mm 0.00 in0.0 mm 0.00 in0.0 mm
08:00 PM 57.2°F14.0°C 47.9°F8.8°C 71% Calm Calm -- 30.30 in1026.1 mb 0.00 in0.0 mm 0.00 in0.0 mm 0.00 in0.0 mm
08:15 PM 55.9°F13.3°C 47.8°F8.8°C 74% Calm Calm -- 30.30 in1026.1 mb 0.00 in0.0 mm 0.00 in0.0 mm 0.00 in0.0 mm
08:30 PM 55.9°F13.3°C 49.2°F9.6°C 78% Calm Calm -- 30.30 in1026.1 mb 0.00 in0.0 mm 0.00 in0.0 mm 0.00 in0.0 mm
08:45 PM 56.1°F13.4°C 48.7°F9.3°C 76% Calm Calm -- 30.30 in1026.1 mb 0.00 in0.0 mm 0.00 in0.0 mm 0.00 in0.0 mm
09:00 PM 55.9°F13.3°C 48.1°F8.9°C 75% Calm Calm -- 30.30 in1026.1 mb 0.00 in0.0 mm 0.00 in0.0 mm 0.00 in0.0 mm
09:30 PM 55.8°F13.2°C 48.7°F9.3°C 77% Calm Calm -- 30.30 in1026.1 mb 0.00 in0.0 mm 0.00 in0.0 mm 0.00 in0.0 mm
09:45 PM 55.6°F13.1°C 48.1°F8.9°C 76% Calm Calm -- 30.30 in1026.1 mb 0.00 in0.0 mm 0.00 in0.0 mm 0.00 in0.0 mm
10:00 PM 55.8°F13.2°C 48.7°F9.3°C 77% Calm Calm -- 30.30 in1026.1 mb 0.00 in0.0 mm 0.00 in0.0 mm 0.00 in0.0 mm
10:15 PM 56.3°F13.5°C 49.2°F9.6°C 77% Calm Calm -- 30.30 in1026.1 mb 0.00 in0.0 mm 0.00 in0.0 mm 0.00 in0.0 mm
10:30 PM 56.3°F13.5°C 49.2°F9.6°C 77% Calm Calm -- 30.30 in1026.1 mb 0.00 in0.0 mm 0.00 in0.0 mm 0.00 in0.0 mm
10:45 PM 56.3°F13.5°C 49.2°F9.6°C 77% Calm Calm -- 30.30 in1026.1 mb 0.00 in0.0 mm 0.00 in0.0 mm 0.00 in0.0 mm
11:00 PM 56.1°F13.4°C 49.4°F9.7°C 78% Calm Calm -- 30.30 in1026.1 mb 0.00 in0.0 mm 0.00 in0.0 mm 0.00 in0.0 mm
11:15 PM 56.3°F13.5°C 49.2°F9.6°C 77% Calm Calm -- 30.30 in1026.1 mb 0.00 in0.0 mm 0.00 in0.0 mm 0.00 in0.0 mm
11:30 PM 56.3°F13.5°C 49.5°F9.7°C 78% Calm Calm -- 30.30 in1026.1 mb 0.00 in0.0 mm 0.00 in0.0 mm 0.00 in0.0 mm
11:45 PM 56.3°F13.5°C 49.9°F9.9°C 79% Calm Calm -- 30.30 in1026.1 mb 0.00 in0.0 mm 0.00 in0.0 mm 0.00 in0.0 mm